Time;durP1;ratioP1;P1;durP2;ratioP2;P2;SDS_P1;SDS_P2;PMS_P1;PMS_P2;Temp;Humidity;BMP_temperature;BMP_pressure;BME280_temperature;BME280_humidity;BME280_pressure;Samples;Min_cycle;Max_cycle;Signal;HPM_P1;HPM_P2
2021/11/21 00:00:09;;;;;;;;;33.25;28.00;;;;;;;;5036913;28;45280;-69
2021/11/21 00:02:34;;;;;;;;;29.25;24.00;;;;;;;;5037629;28;45745;-69
2021/11/21 00:04:59;;;;;;;;;31.50;25.75;;;;;;;;5036618;28;45471;-70
2021/11/21 00:07:24;;;;;;;;;29.25;25.50;;;;;;;;5036775;28;46345;-67
2021/11/21 00:09:50;;;;;;;;;35.25;31.75;;;;;;;;5036740;28;45485;-68
2021/11/21 00:12:16;;;;;;;;;31.75;24.25;;;;;;;;5036832;28;45442;-69
2021/11/21 00:14:41;;;;;;;;;26.00;24.00;;;;;;;;5038175;28;45496;-79
2021/11/21 00:17:07;;;;;;;;;24.50;23.25;;;;;;;;5037592;28;45473;-76
2021/11/21 00:19:33;;;;;;;;;30.25;22.25;;;;;;;;5036329;28;45689;-71
2021/11/21 00:21:58;;;;;;;;;35.50;29.00;;;;;;;;5036977;28;45513;-76
2021/11/21 00:24:23;;;;;;;;;30.75;27.00;;;;;;;;5037227;28;45268;-79
2021/11/21 00:26:48;;;;;;;;;34.50;27.75;;;;;;;;5035413;28;46485;-75
2021/11/21 00:29:15;;;;;;;;;38.25;28.00;;;;;;;;5037139;28;45407;-79
2021/11/21 00:31:40;;;;;;;;;34.75;30.75;;;;;;;;5036970;28;45363;-80
2021/11/21 00:34:05;;;;;;;;;30.50;29.00;;;;;;;;5037463;28;45408;-75
2021/11/21 00:36:31;;;;;;;;;23.00;20.00;;;;;;;;5037123;28;45465;-76
2021/11/21 00:38:56;;;;;;;;;23.25;18.25;;;;;;;;5036910;28;45428;-76
2021/11/21 00:41:22;;;;;;;;;27.00;22.75;;;;;;;;5037661;28;45458;-77
2021/11/21 00:43:48;;;;;;;;;35.00;29.00;;;;;;;;5037091;28;45296;-80
2021/11/21 00:46:13;;;;;;;;;24.00;22.25;;;;;;;;5036922;28;46363;-79
2021/11/21 00:48:39;;;;;;;;;25.50;23.00;;;;;;;;5018804;28;46120;-78
2021/11/21 00:51:04;;;;;;;;;28.75;24.00;;;;;;;;5019062;28;45517;-74
2021/11/21 00:53:31;;;;;;;;;30.75;26.50;;;;;;;;5037264;28;45476;-78
2021/11/21 00:56:07;;;;;;;;;27.25;25.50;;;;;;;;5018389;28;48440;-72
2021/11/21 00:58:33;;;;;;;;;25.00;22.00;;;;;;;;5036880;28;45235;-75
2021/11/21 01:00:59;;;;;;;;;28.00;26.00;;;;;;;;5035764;28;45447;-75
2021/11/21 01:03:25;;;;;;;;;32.00;27.25;;;;;;;;5036487;28;45158;-71
2021/11/21 01:05:51;;;;;;;;;31.00;27.75;;;;;;;;5036257;28;48614;-70
2021/11/21 01:08:17;;;;;;;;;26.00;25.00;;;;;;;;5037541;28;45412;-90
2021/11/21 01:10:42;;;;;;;;;36.75;27.50;;;;;;;;5037203;28;45338;-84
2021/11/21 01:13:08;;;;;;;;;48.75;38.25;;;;;;;;5018513;28;45594;-77
2021/11/21 01:15:34;;;;;;;;;44.50;34.50;;;;;;;;5036016;28;49445;-80
2021/11/21 01:17:59;;;;;;;;;36.00;31.50;;;;;;;;5035860;28;45557;-77
2021/11/21 01:20:28;;;;;;;;;25.00;24.25;;;;;;;;5036474;28;45427;-66
2021/11/21 01:22:53;;;;;;;;;32.50;25.75;;;;;;;;5035688;28;45640;-65
2021/11/21 01:25:19;;;;;;;;;27.75;26.25;;;;;;;;5035848;28;45327;-68
2021/11/21 01:27:44;;;;;;;;;32.75;29.25;;;;;;;;5018152;28;45447;-78
2021/11/21 01:30:14;;;;;;;;;28.00;25.00;;;;;;;;5031233;28;45629;-79
2021/11/21 01:32:40;;;;;;;;;29.00;27.25;;;;;;;;5035302;28;45472;-77
2021/11/21 01:35:05;;;;;;;;;29.75;24.50;;;;;;;;5034838;28;46590;-78
2021/11/21 01:37:30;;;;;;;;;33.50;27.00;;;;;;;;5034326;28;45737;-79
2021/11/21 01:39:56;;;;;;;;;36.00;28.50;;;;;;;;5034985;28;45395;-79
2021/11/21 01:42:22;;;;;;;;;27.75;24.00;;;;;;;;5035325;28;45402;-80
2021/11/21 01:44:48;;;;;;;;;36.00;28.00;;;;;;;;5035338;28;45529;-79
2021/11/21 01:47:13;;;;;;;;;33.00;26.50;;;;;;;;5034377;28;45430;-79
2021/11/21 01:49:38;;;;;;;;;31.00;28.25;;;;;;;;5035517;28;45399;-79
2021/11/21 01:52:03;;;;;;;;;34.25;31.50;;;;;;;;5035474;28;45405;-78
2021/11/21 01:54:29;;;;;;;;;43.75;34.50;;;;;;;;5035111;28;47378;-79
2021/11/21 01:56:54;;;;;;;;;28.00;24.75;;;;;;;;5035548;28;45430;-80
2021/11/21 01:59:19;;;;;;;;;32.50;29.50;;;;;;;;5032544;28;45353;-79
2021/11/21 02:01:46;;;;;;;;;30.25;28.00;;;;;;;;5035295;28;45277;-79
2021/11/21 02:04:11;;;;;;;;;36.25;30.75;;;;;;;;5034968;28;46293;-79
2021/11/21 02:06:37;;;;;;;;;33.00;29.00;;;;;;;;5034512;28;45483;-79
2021/11/21 02:09:03;;;;;;;;;33.25;29.00;;;;;;;;5034447;28;45503;-79
2021/11/21 02:11:28;;;;;;;;;32.00;26.50;;;;;;;;5035267;28;45495;-80
2021/11/21 02:13:54;;;;;;;;;35.50;30.25;;;;;;;;5034069;28;46447;-79
2021/11/21 02:16:21;;;;;;;;;30.25;28.25;;;;;;;;5034600;28;45490;-77
2021/11/21 02:18:47;;;;;;;;;31.50;30.75;;;;;;;;5034633;28;45601;-79
2021/11/21 02:21:13;;;;;;;;;34.00;28.75;;;;;;;;5034190;28;45309;-80
2021/11/21 02:23:38;;;;;;;;;36.25;27.25;;;;;;;;5035131;28;45518;-79
2021/11/21 02:26:04;;;;;;;;;36.25;32.25;;;;;;;;5016653;28;45983;-79
2021/11/21 02:28:29;;;;;;;;;31.50;28.25;;;;;;;;5034331;28;45597;-78
2021/11/21 02:30:55;;;;;;;;;35.50;27.50;;;;;;;;5034173;28;45531;-74
2021/11/21 02:33:21;;;;;;;;;22.75;21.50;;;;;;;;5034037;28;45804;-76
2021/11/21 02:35:47;;;;;;;;;29.75;27.25;;;;;;;;5034515;28;45411;-76
2021/11/21 02:38:14;;;;;;;;;33.25;29.75;;;;;;;;5034038;28;45503;-75
2021/11/21 02:40:40;;;;;;;;;29.25;24.00;;;;;;;;5034243;28;45493;-75
2021/11/21 02:43:05;;;;;;;;;35.25;28.50;;;;;;;;5033550;28;47158;-75
2021/11/21 02:45:30;;;;;;;;;30.75;25.00;;;;;;;;5033993;28;45363;-76
2021/11/21 02:47:56;;;;;;;;;35.25;31.00;;;;;;;;5034002;28;45434;-75
2021/11/21 02:50:23;;;;;;;;;23.00;22.00;;;;;;;;5034323;28;45482;-76
2021/11/21 02:52:49;;;;;;;;;31.00;25.25;;;;;;;;5033700;28;45572;-75
2021/11/21 02:55:15;;;;;;;;;34.25;26.25;;;;;;;;5033499;28;45462;-76
2021/11/21 02:57:40;;;;;;;;;30.00;25.25;;;;;;;;5033973;28;45424;-76
2021/11/21 03:00:08;;;;;;;;;29.75;24.00;;;;;;;;5033900;28;45370;-76
2021/11/21 03:02:33;;;;;;;;;25.00;25.00;;;;;;;;5034271;28;46274;-75
2021/11/21 03:04:59;;;;;;;;;40.25;32.25;;;;;;;;5033660;28;45811;-75
2021/11/21 03:07:24;;;;;;;;;27.00;25.25;;;;;;;;5033991;28;45434;-77
2021/11/21 03:09:50;;;;;;;;;34.25;28.50;;;;;;;;5033762;28;45578;-74
2021/11/21 03:12:20;;;;;;;;;28.75;26.50;;;;;;;;5017803;28;47174;-76
2021/11/21 03:14:45;;;;;;;;;28.25;24.25;;;;;;;;5028947;28;45411;-77
2021/11/21 03:17:11;;;;;;;;;32.00;26.25;;;;;;;;5033538;28;45410;-77
2021/11/21 03:19:36;;;;;;;;;30.00;26.50;;;;;;;;5033390;28;45582;-77
2021/11/21 03:22:01;;;;;;;;;34.50;28.75;;;;;;;;5033741;28;45360;-76
2021/11/21 03:24:27;;;;;;;;;30.75;28.50;;;;;;;;5035042;28;45407;-75
2021/11/21 03:26:52;;;;;;;;;30.50;26.75;;;;;;;;5037346;28;45377;-77
2021/11/21 03:29:17;;;;;;;;;35.50;27.00;;;;;;;;5037148;28;45505;-77
2021/11/21 03:31:42;;;;;;;;;27.00;16.50;;;;;;;;5036857;28;46104;-77
2021/11/21 03:34:08;;;;;;;;;32.25;28.75;;;;;;;;5036859;28;45305;-77
2021/11/21 03:36:33;;;;;;;;;31.00;23.50;;;;;;;;5019493;28;45488;-76
2021/11/21 03:38:59;;;;;;;;;35.25;32.00;;;;;;;;5037559;28;45439;-75
2021/11/21 03:41:24;;;;;;;;;32.00;27.75;;;;;;;;5019706;28;47403;-75
2021/11/21 03:43:50;;;;;;;;;33.75;30.25;;;;;;;;5036869;28;45458;-75
2021/11/21 03:46:15;;;;;;;;;36.75;28.50;;;;;;;;5037240;28;45485;-75
2021/11/21 03:48:41;;;;;;;;;35.75;30.25;;;;;;;;5036800;28;45320;-75
2021/11/21 03:51:06;;;;;;;;;27.75;24.25;;;;;;;;5036313;28;45347;-76
2021/11/21 03:53:31;;;;;;;;;32.25;25.75;;;;;;;;5037267;28;45252;-77
2021/11/21 03:55:56;;;;;;;;;33.50;31.50;;;;;;;;5036742;28;45465;-78
2021/11/21 03:58:22;;;;;;;;;31.75;28.50;;;;;;;;5036586;28;45233;-76
2021/11/21 04:00:47;;;;;;;;;38.00;31.50;;;;;;;;5036608;28;45373;-76
2021/11/21 04:03:13;;;;;;;;;29.75;27.00;;;;;;;;5036066;28;45887;-76
2021/11/21 04:05:39;;;;;;;;;40.00;33.50;;;;;;;;5037161;28;45440;-77
2021/11/21 04:08:04;;;;;;;;;32.50;28.75;;;;;;;;5036415;28;45318;-77
2021/11/21 04:10:30;;;;;;;;;36.75;29.50;;;;;;;;5036800;28;46209;-77
2021/11/21 04:12:55;;;;;;;;;36.00;29.00;;;;;;;;5036342;28;45561;-77
2021/11/21 04:15:21;;;;;;;;;39.00;30.75;;;;;;;;5036809;28;45334;-76
2021/11/21 04:17:46;;;;;;;;;29.00;27.00;;;;;;;;5036761;28;45312;-77
2021/11/21 04:20:12;;;;;;;;;23.50;20.00;;;;;;;;5036196;28;45518;-77
2021/11/21 04:22:37;;;;;;;;;34.50;26.25;;;;;;;;5018310;28;46109;-77
2021/11/21 04:25:02;;;;;;;;;29.75;27.00;;;;;;;;5036450;28;45504;-75
2021/11/21 04:27:28;;;;;;;;;24.50;23.50;;;;;;;;5036421;28;45504;-76
2021/11/21 04:29:56;;;;;;;;;33.75;28.00;;;;;;;;5036126;28;45929;-77
2021/11/21 04:32:23;;;;;;;;;33.50;28.50;;;;;;;;5035409;28;45403;-77
2021/11/21 04:34:48;;;;;;;;;35.00;27.25;;;;;;;;5035537;28;45281;-77
2021/11/21 04:37:13;;;;;;;;;32.00;29.50;;;;;;;;5035445;28;45389;-76
2021/11/21 04:39:39;;;;;;;;;34.00;28.50;;;;;;;;5035820;28;45419;-76
2021/11/21 04:42:04;;;;;;;;;33.00;28.25;;;;;;;;5035954;28;45591;-76
2021/11/21 04:44:29;;;;;;;;;33.75;29.50;;;;;;;;5036865;28;45477;-76
2021/11/21 04:46:54;;;;;;;;;33.50;29.25;;;;;;;;5035706;28;45574;-76
2021/11/21 04:49:20;;;;;;;;;35.75;30.25;;;;;;;;5035801;28;46220;-76
2021/11/21 04:51:45;;;;;;;;;28.00;23.50;;;;;;;;5035718;28;45446;-76
2021/11/21 04:54:15;;;;;;;;;30.50;25.00;;;;;;;;5035968;28;45526;-78
2021/11/21 04:56:40;;;;;;;;;31.75;27.25;;;;;;;;5036851;28;45479;-78
2021/11/21 04:59:05;;;;;;;;;37.25;29.75;;;;;;;;5036363;28;45319;-77
2021/11/21 05:01:31;;;;;;;;;34.00;26.50;;;;;;;;5035670;28;45324;-77
2021/11/21 05:03:56;;;;;;;;;31.25;25.50;;;;;;;;5036460;28;45431;-77
2021/11/21 05:06:21;;;;;;;;;28.50;27.25;;;;;;;;5018456;28;45663;-77
2021/11/21 05:08:46;;;;;;;;;34.50;29.25;;;;;;;;5037096;28;45422;-78
2021/11/21 05:11:11;;;;;;;;;32.00;27.50;;;;;;;;5040047;28;45509;-76
2021/11/21 05:13:37;;;;;;;;;34.75;30.25;;;;;;;;5038141;28;45285;-77
2021/11/21 05:16:02;;;;;;;;;33.50;29.00;;;;;;;;5018129;28;45631;-77
2021/11/21 05:18:27;;;;;;;;;35.25;29.75;;;;;;;;5018518;28;47483;-77
2021/11/21 05:20:52;;;;;;;;;31.50;25.00;;;;;;;;5036689;28;45257;-77
2021/11/21 05:23:17;;;;;;;;;29.25;24.75;;;;;;;;5036714;28;47226;-77
2021/11/21 05:25:43;;;;;;;;;31.75;27.25;;;;;;;;5036292;28;45331;-77
2021/11/21 05:28:08;;;;;;;;;26.25;22.75;;;;;;;;5035952;28;45987;-77
2021/11/21 05:30:33;;;;;;;;;29.00;26.00;;;;;;;;5035828;28;45592;-77
2021/11/21 05:32:58;;;;;;;;;32.75;24.75;;;;;;;;5036354;28;45367;-75
2021/11/21 05:35:24;;;;;;;;;27.00;24.75;;;;;;;;5036402;28;45350;-75
2021/11/21 05:37:50;;;;;;;;;28.75;25.00;;;;;;;;5035335;28;46162;-77
2021/11/21 05:40:16;;;;;;;;;29.00;23.00;;;;;;;;5035399;28;45300;-77
2021/11/21 05:42:42;;;;;;;;;30.50;28.00;;;;;;;;5036123;28;45675;-75
2021/11/21 05:45:07;;;;;;;;;31.75;26.75;;;;;;;;5035644;28;45296;-77
2021/11/21 05:47:33;;;;;;;;;36.25;27.75;;;;;;;;5035918;28;46852;-77
2021/11/21 05:49:59;;;;;;;;;24.00;19.75;;;;;;;;5035437;28;45293;-76
2021/11/21 05:52:24;;;;;;;;;27.75;21.75;;;;;;;;5035624;28;45509;-75
2021/11/21 05:54:50;;;;;;;;;27.75;24.50;;;;;;;;5039026;28;45308;-77
2021/11/21 05:57:16;;;;;;;;;30.50;26.75;;;;;;;;5039058;28;46143;-77
2021/11/21 05:59:41;;;;;;;;;31.25;27.25;;;;;;;;5035848;28;45314;-77
2021/11/21 06:02:06;;;;;;;;;30.75;27.00;;;;;;;;5035678;28;45382;-77
2021/11/21 06:04:32;;;;;;;;;25.75;24.00;;;;;;;;5035623;28;45429;-77
2021/11/21 06:06:58;;;;;;;;;32.75;25.00;;;;;;;;5035421;28;45493;-77
2021/11/21 06:09:23;;;;;;;;;25.50;25.00;;;;;;;;5017322;28;45476;-76
2021/11/21 06:11:49;;;;;;;;;24.00;21.50;;;;;;;;5035795;28;45485;-77
2021/11/21 06:14:14;;;;;;;;;27.75;25.25;;;;;;;;5034700;28;45292;-77
2021/11/21 06:16:39;;;;;;;;;27.00;24.00;;;;;;;;5035012;28;46238;-77
2021/11/21 06:19:05;;;;;;;;;25.00;22.50;;;;;;;;5034785;28;45531;-76
2021/11/21 06:21:31;;;;;;;;;25.50;23.75;;;;;;;;5035520;28;45375;-77
2021/11/21 06:23:56;;;;;;;;;24.50;20.75;;;;;;;;5036211;28;45548;-78
2021/11/21 06:26:21;;;;;;;;;33.50;28.00;;;;;;;;5035163;28;45448;-76
2021/11/21 06:28:46;;;;;;;;;30.00;25.50;;;;;;;;5034258;28;45368;-78
2021/11/21 06:31:12;;;;;;;;;27.00;23.25;;;;;;;;5034773;28;45363;-76
2021/11/21 06:33:37;;;;;;;;;25.00;20.25;;;;;;;;5034760;28;45316;-77
2021/11/21 06:36:02;;;;;;;;;24.75;19.25;;;;;;;;5037104;28;46262;-77
2021/11/21 06:38:29;;;;;;;;;26.75;21.75;;;;;;;;5037719;28;45383;-78
2021/11/21 06:40:54;;;;;;;;;22.50;20.75;;;;;;;;5035422;28;45415;-77
2021/11/21 06:43:20;;;;;;;;;31.50;24.25;;;;;;;;5034284;28;45520;-78
2021/11/21 06:45:45;;;;;;;;;21.75;20.50;;;;;;;;5034553;28;45395;-78
2021/11/21 06:48:11;;;;;;;;;29.00;24.50;;;;;;;;5034504;28;45392;-77
2021/11/21 06:50:37;;;;;;;;;30.50;22.75;;;;;;;;5035009;28;45236;-78
2021/11/21 06:53:03;;;;;;;;;11.75;10.00;;;;;;;;5034541;28;45384;-77
2021/11/21 06:55:28;;;;;;;;;26.00;24.75;;;;;;;;5034259;28;46263;-78
2021/11/21 06:57:55;;;;;;;;;24.75;23.25;;;;;;;;5033225;28;45305;-77
2021/11/21 07:00:20;;;;;;;;;22.00;19.50;;;;;;;;5034058;28;45465;-79
2021/11/21 07:02:45;;;;;;;;;26.25;23.75;;;;;;;;5034992;28;45263;-78
2021/11/21 07:05:11;;;;;;;;;22.00;19.25;;;;;;;;5033813;28;45446;-77
2021/11/21 07:07:36;;;;;;;;;27.00;23.50;;;;;;;;5034142;28;45422;-78
2021/11/21 07:10:03;;;;;;;;;23.50;20.50;;;;;;;;5034207;28;45577;-77
2021/11/21 07:12:28;;;;;;;;;26.75;22.25;;;;;;;;5034183;28;45762;-76
2021/11/21 07:14:53;;;;;;;;;29.50;21.00;;;;;;;;5034245;28;46135;-76
2021/11/21 07:17:19;;;;;;;;;25.25;21.25;;;;;;;;5034570;28;45478;-77
2021/11/21 07:19:44;;;;;;;;;23.00;16.50;;;;;;;;5038502;28;45454;-77
2021/11/21 07:22:09;;;;;;;;;27.00;20.50;;;;;;;;5037188;28;47898;-77
2021/11/21 07:24:34;;;;;;;;;30.00;21.75;;;;;;;;5033980;28;46027;-77
2021/11/21 07:27:00;;;;;;;;;26.25;21.00;;;;;;;;5033650;28;45524;-75
2021/11/21 07:29:31;;;;;;;;;22.00;22.00;;;;;;;;5034477;28;45455;-77
2021/11/21 07:31:57;;;;;;;;;22.75;17.75;;;;;;;;5034183;28;45443;-77
2021/11/21 07:34:22;;;;;;;;;17.75;17.00;;;;;;;;5033761;28;45426;-78
2021/11/21 07:36:48;;;;;;;;;25.00;23.75;;;;;;;;5033632;28;45374;-79
2021/11/21 07:39:13;;;;;;;;;25.75;20.50;;;;;;;;5033531;28;45662;-78
2021/11/21 07:41:38;;;;;;;;;24.00;19.00;;;;;;;;5033516;28;45347;-79
2021/11/21 07:44:04;;;;;;;;;21.75;18.50;;;;;;;;5034415;28;47298;-76
2021/11/21 07:46:29;;;;;;;;;21.50;19.75;;;;;;;;5033784;28;45486;-77
2021/11/21 07:48:55;;;;;;;;;23.25;21.25;;;;;;;;5033335;28;45751;-75
2021/11/21 07:51:20;;;;;;;;;19.75;19.75;;;;;;;;5033591;28;45372;-79
2021/11/21 07:53:45;;;;;;;;;22.25;19.25;;;;;;;;5034468;28;45477;-78
2021/11/21 07:56:10;;;;;;;;;23.25;19.75;;;;;;;;5033337;28;45399;-78
2021/11/21 07:58:36;;;;;;;;;28.25;25.75;;;;;;;;5034026;28;45347;-77
2021/11/21 08:01:01;;;;;;;;;23.75;21.75;;;;;;;;5017247;28;45403;-77
2021/11/21 08:03:26;;;;;;;;;24.00;22.25;;;;;;;;5036138;28;46193;-77
2021/11/21 08:05:51;;;;;;;;;20.25;18.25;;;;;;;;5036191;28;45387;-78
2021/11/21 08:08:16;;;;;;;;;22.25;21.00;;;;;;;;5034039;28;45457;-77
2021/11/21 08:10:42;;;;;;;;;18.25;17.00;;;;;;;;5035145;28;45440;-78
2021/11/21 08:13:08;;;;;;;;;22.25;17.25;;;;;;;;5018512;28;45997;-77
2021/11/21 08:15:33;;;;;;;;;16.25;15.75;;;;;;;;5037283;28;45451;-77
2021/11/21 08:17:59;;;;;;;;;21.25;18.00;;;;;;;;5036821;28;45340;-77
2021/11/21 08:20:26;;;;;;;;;18.75;16.50;;;;;;;;5037107;28;45406;-77
2021/11/21 08:22:51;;;;;;;;;26.75;19.00;;;;;;;;5036486;28;47198;-76
2021/11/21 08:25:16;;;;;;;;;18.00;16.00;;;;;;;;5036547;28;45405;-75
2021/11/21 08:27:42;;;;;;;;;22.25;18.50;;;;;;;;5036530;28;45392;-77
2021/11/21 08:30:08;;;;;;;;;20.50;16.25;;;;;;;;5036997;28;45342;-77
2021/11/21 08:32:33;;;;;;;;;15.00;13.75;;;;;;;;5037225;28;45349;-78
2021/11/21 08:34:58;;;;;;;;;15.75;15.75;;;;;;;;5036338;28;45569;-78
2021/11/21 08:37:24;;;;;;;;;15.75;13.00;;;;;;;;5036253;28;45316;-77
2021/11/21 08:39:49;;;;;;;;;15.00;13.75;;;;;;;;5036102;28;45588;-78
2021/11/21 08:42:14;;;;;;;;;22.50;20.75;;;;;;;;5037260;28;46457;-78
2021/11/21 08:44:39;;;;;;;;;19.25;17.00;;;;;;;;5020263;28;46051;-77
2021/11/21 08:47:05;;;;;;;;;17.50;16.50;;;;;;;;5037000;28;45593;-78
2021/11/21 08:49:30;;;;;;;;;23.00;19.00;;;;;;;;5036281;28;45324;-77
2021/11/21 08:51:55;;;;;;;;;15.00;12.25;;;;;;;;5038361;28;46554;-76
2021/11/21 08:54:20;;;;;;;;;15.50;15.00;;;;;;;;5035489;28;45377;-76
2021/11/21 08:56:47;;;;;;;;;15.25;14.25;;;;;;;;5036729;28;45312;-76
2021/11/21 08:59:12;;;;;;;;;23.25;18.25;;;;;;;;5035803;28;45672;-77
2021/11/21 09:01:42;;;;;;;;;19.75;16.00;;;;;;;;5035866;28;45803;-77
2021/11/21 09:04:10;;;;;;;;;22.75;19.50;;;;;;;;5036510;28;45427;-78
2021/11/21 09:06:35;;;;;;;;;19.00;17.00;;;;;;;;5036773;28;45554;-78
2021/11/21 09:09:01;;;;;;;;;18.25;15.50;;;;;;;;5035820;28;45339;-77
2021/11/21 09:11:26;;;;;;;;;19.00;14.75;;;;;;;;5036208;28;45503;-77
2021/11/21 09:13:51;;;;;;;;;19.50;16.75;;;;;;;;5035968;28;45446;-77
2021/11/21 09:16:17;;;;;;;;;15.50;14.50;;;;;;;;5036397;28;45391;-78
2021/11/21 09:18:42;;;;;;;;;18.50;18.25;;;;;;;;5036161;28;45516;-78
2021/11/21 09:21:07;;;;;;;;;22.75;18.50;;;;;;;;5017936;28;47121;-79
2021/11/21 09:23:33;;;;;;;;;21.00;18.50;;;;;;;;5039316;28;45354;-78
2021/11/21 09:25:58;;;;;;;;;17.00;16.50;;;;;;;;5033072;28;45804;-76
2021/11/21 09:28:26;;;;;;;;;23.00;20.25;;;;;;;;5036543;28;45352;-77
2021/11/21 09:30:53;;;;;;;;;21.75;19.75;;;;;;;;5035179;28;46335;-76
2021/11/21 09:33:18;;;;;;;;;20.00;20.00;;;;;;;;5019451;28;45305;-76
2021/11/21 09:35:45;;;;;;;;;24.50;19.50;;;;;;;;5035723;28;45345;-79
2021/11/21 09:38:10;;;;;;;;;26.00;21.25;;;;;;;;5034691;28;45313;-77
2021/11/21 09:40:35;;;;;;;;;25.75;23.75;;;;;;;;5035372;28;45433;-77
2021/11/21 09:43:02;;;;;;;;;21.00;19.00;;;;;;;;5034886;28;45443;-77
2021/11/21 09:45:27;;;;;;;;;25.50;20.50;;;;;;;;5035039;28;45227;-77
2021/11/21 09:47:58;;;;;;;;;24.25;21.25;;;;;;;;5035201;28;45440;-77
2021/11/21 09:50:25;;;;;;;;;25.75;22.00;;;;;;;;5034725;28;45434;-77
2021/11/21 09:52:50;;;;;;;;;21.75;19.25;;;;;;;;5034651;28;45513;-77
2021/11/21 09:55:16;;;;;;;;;25.50;22.25;;;;;;;;5020938;28;45412;-79
2021/11/21 09:57:43;;;;;;;;;25.50;21.50;;;;;;;;5034296;28;45457;-76
2021/11/21 10:00:08;;;;;;;;;21.00;20.00;;;;;;;;5034704;28;45352;-74
2021/11/21 10:02:39;;;;;;;;;29.50;24.00;;;;;;;;5035466;28;45284;-77
2021/11/21 10:05:25;;;;;;;;;31.25;27.25;;;;;;;;5034907;28;45399;-77
2021/11/21 10:08:17;;;;;;;;;24.50;20.75;;;;;;;;5034756;28;45533;-77
2021/11/21 10:10:50;;;;;;;;;28.50;21.50;;;;;;;;5032527;28;45608;-77
2021/11/21 10:13:35;;;;;;;;;27.25;20.75;;;;;;;;5034493;28;45328;-76
2021/11/21 10:16:19;;;;;;;;;33.25;29.00;;;;;;;;5034074;28;45229;-74
2021/11/21 10:18:47;;;;;;;;;24.75;21.75;;;;;;;;5034403;28;45505;-75
2021/11/21 10:21:12;;;;;;;;;24.25;20.50;;;;;;;;5033729;28;46136;-76
2021/11/21 10:23:37;;;;;;;;;28.75;25.75;;;;;;;;5035163;28;45438;-77
2021/11/21 10:26:03;;;;;;;;;29.00;23.00;;;;;;;;5034569;28;45439;-77
2021/11/21 10:28:29;;;;;;;;;23.75;20.50;;;;;;;;5033920;28;45326;-74
2021/11/21 10:31:00;;;;;;;;;30.00;24.25;;;;;;;;5034278;28;46658;-74
2021/11/21 10:33:27;;;;;;;;;28.50;24.75;;;;;;;;5032700;28;45512;-76
2021/11/21 10:36:11;;;;;;;;;23.50;19.75;;;;;;;;5033766;28;45367;-73
2021/11/21 10:38:56;;;;;;;;;28.50;26.50;;;;;;;;5034286;28;45568;-73
2021/11/21 10:41:23;;;;;;;;;33.75;30.75;;;;;;;;5014607;28;47307;-74
2021/11/21 10:43:58;;;;;;;;;35.75;27.00;;;;;;;;5033263;28;45494;-73
2021/11/21 10:46:24;;;;;;;;;31.50;28.25;;;;;;;;5033411;28;45455;-74
2021/11/21 10:48:50;;;;;;;;;30.00;25.50;;;;;;;;5033297;28;45574;-73
2021/11/21 10:51:22;;;;;;;;;35.25;30.25;;;;;;;;5033730;28;46263;-75
2021/11/21 10:53:48;;;;;;;;;29.50;26.25;;;;;;;;5030452;28;45498;-75
2021/11/21 10:56:13;;;;;;;;;30.50;26.75;;;;;;;;5034251;28;45270;-75
2021/11/21 10:58:46;;;;;;;;;27.75;22.50;;;;;;;;5034063;28;45396;-74
2021/11/21 11:01:18;;;;;;;;;26.50;25.50;;;;;;;;5033919;28;45458;-75
2021/11/21 11:03:46;;;;;;;;;29.50;23.75;;;;;;;;5033123;28;45293;-74
2021/11/21 11:06:25;;;;;;;;;23.25;21.25;;;;;;;;5015418;28;45647;-74
2021/11/21 11:08:50;;;;;;;;;27.75;25.50;;;;;;;;5030482;28;45372;-75
2021/11/21 11:11:15;;;;;;;;;28.00;27.00;;;;;;;;5033198;28;46098;-75
2021/11/21 11:13:40;;;;;;;;;30.00;24.25;;;;;;;;5032683;28;45439;-74
2021/11/21 11:16:06;;;;;;;;;31.75;27.00;;;;;;;;5033116;28;45271;-74
2021/11/21 11:18:31;;;;;;;;;23.00;21.50;;;;;;;;5032847;28;45356;-73
2021/11/21 11:20:58;;;;;;;;;28.75;28.75;;;;;;;;5033358;28;45605;-73
2021/11/21 11:23:23;;;;;;;;;32.50;27.50;;;;;;;;5032433;28;45506;-74
2021/11/21 11:25:49;;;;;;;;;32.75;25.00;;;;;;;;5033237;28;45518;-75
2021/11/21 11:28:24;;;;;;;;;29.00;25.75;;;;;;;;5033445;28;45419;-74
2021/11/21 11:30:49;;;;;;;;;30.50;30.25;;;;;;;;5032642;28;46260;-74
2021/11/21 11:33:16;;;;;;;;;28.75;27.75;;;;;;;;5032124;28;45392;-74
2021/11/21 11:35:47;;;;;;;;;32.25;27.50;;;;;;;;5015236;28;45296;-74
2021/11/21 11:38:15;;;;;;;;;32.25;28.50;;;;;;;;5032452;28;47230;-74
2021/11/21 11:40:42;;;;;;;;;39.50;31.25;;;;;;;;5033462;28;45400;-77
2021/11/21 11:43:37;;;;;;;;;27.75;26.25;;;;;;;;5033388;28;45482;-76
2021/11/21 11:46:06;;;;;;;;;36.75;32.50;;;;;;;;5035515;28;45474;-77
2021/11/21 11:48:33;;;;;;;;;34.50;26.50;;;;;;;;5036425;28;45528;-78
2021/11/21 11:51:00;;;;;;;;;29.25;25.75;;;;;;;;5036486;28;45629;-78
2021/11/21 11:53:33;;;;;;;;;32.25;32.00;;;;;;;;5037181;28;45298;-81
2021/11/21 11:56:15;;;;;;;;;26.50;22.50;;;;;;;;5036815;28;45378;-79
2021/11/21 11:58:43;;;;;;;;;32.00;29.50;;;;;;;;5036022;28;45641;-77
2021/11/21 12:01:09;;;;;;;;;31.50;27.75;;;;;;;;5035626;28;46157;-78
2021/11/21 12:03:39;;;;;;;;;29.50;27.50;;;;;;;;5017835;28;46091;-77
2021/11/21 12:06:05;;;;;;;;;16.75;16.75;;;;;;;;5036223;28;45360;-79
2021/11/21 12:08:30;;;;;;;;;29.00;25.25;;;;;;;;5034646;28;45344;-78
2021/11/21 12:10:55;;;;;;;;;25.25;24.75;;;;;;;;5036036;28;46304;-78
2021/11/21 12:13:38;;;;;;;;;29.25;26.50;;;;;;;;5035904;28;45333;-78
2021/11/21 12:16:05;;;;;;;;;25.75;22.50;;;;;;;;5017822;28;45383;-79
2021/11/21 12:18:49;;;;;;;;;26.75;24.50;;;;;;;;5036275;28;45734;-77
2021/11/21 12:21:32;;;;;;;;;25.25;20.50;;;;;;;;5036492;28;46549;-74
2021/11/21 12:23:58;;;;;;;;;27.25;23.75;;;;;;;;5033524;28;45423;-83
2021/11/21 12:26:24;;;;;;;;;26.50;23.00;;;;;;;;5036578;28;45334;-77
2021/11/21 12:29:00;;;;;;;;;30.00;27.25;;;;;;;;5036118;28;45280;-77
2021/11/21 12:31:30;;;;;;;;;27.25;26.00;;;;;;;;5036196;28;46624;-76
2021/11/21 12:34:13;;;;;;;;;26.00;20.75;;;;;;;;5035593;28;45588;-77
2021/11/21 12:36:57;;;;;;;;;21.25;19.25;;;;;;;;5035958;28;45205;-77
2021/11/21 12:39:29;;;;;;;;;29.75;27.00;;;;;;;;5020862;28;45308;-76
2021/11/21 12:42:02;;;;;;;;;33.50;27.25;;;;;;;;5036605;28;46379;-76
2021/11/21 12:44:27;;;;;;;;;29.75;26.75;;;;;;;;5039675;28;45404;-74
2021/11/21 12:46:57;;;;;;;;;28.25;22.50;;;;;;;;5036077;28;45539;-73
2021/11/21 12:49:23;;;;;;;;;25.00;23.75;;;;;;;;5035620;28;45494;-73
2021/11/21 12:52:10;;;;;;;;;30.00;21.50;;;;;;;;5036099;28;45276;-75
2021/11/21 12:54:36;;;;;;;;;25.50;22.50;;;;;;;;5022309;28;45473;-78
2021/11/21 12:57:02;;;;;;;;;22.25;18.50;;;;;;;;5034628;28;45235;-78
2021/11/21 12:59:45;;;;;;;;;22.75;20.75;;;;;;;;5035918;28;45594;-76
2021/11/21 13:02:11;;;;;;;;;19.75;19.75;;;;;;;;5035572;28;45549;-75
2021/11/21 13:04:57;;;;;;;;;17.50;16.50;;;;;;;;5035133;28;45839;-75
2021/11/21 13:07:31;;;;;;;;;21.50;19.75;;;;;;;;5035727;28;45580;-76
2021/11/21 13:10:08;;;;;;;;;20.50;18.75;;;;;;;;5035162;28;45506;-74
2021/11/21 13:12:35;;;;;;;;;16.50;16.50;;;;;;;;5034434;28;46072;-73
2021/11/21 13:15:03;;;;;;;;;19.75;18.50;;;;;;;;5034546;28;45319;-73
2021/11/21 13:17:28;;;;;;;;;20.25;20.25;;;;;;;;5035460;28;45288;-72
2021/11/21 13:20:01;;;;;;;;;20.00;17.00;;;;;;;;5034921;28;45557;-74
2021/11/21 13:22:45;;;;;;;;;22.00;20.00;;;;;;;;5035020;28;46226;-77
2021/11/21 13:25:10;;;;;;;;;24.50;21.50;;;;;;;;5034603;28;45426;-76
2021/11/21 13:27:36;;;;;;;;;18.75;17.25;;;;;;;;5035096;28;45414;-73
2021/11/21 13:30:10;;;;;;;;;21.75;17.50;;;;;;;;5035418;28;45580;-73
2021/11/21 13:32:36;;;;;;;;;23.75;18.50;;;;;;;;5033686;28;46115;-77
2021/11/21 13:35:14;;;;;;;;;22.25;18.50;;;;;;;;5034045;28;45352;-75
2021/11/21 13:37:40;;;;;;;;;20.75;17.50;;;;;;;;5035211;28;45377;-78
2021/11/21 13:40:05;;;;;;;;;26.50;21.25;;;;;;;;5035174;28;45461;-77
2021/11/21 13:42:30;;;;;;;;;19.75;19.75;;;;;;;;5034272;28;47473;-75
2021/11/21 13:44:55;;;;;;;;;19.50;18.75;;;;;;;;5016291;28;45452;-77
2021/11/21 13:47:27;;;;;;;;;18.75;15.00;;;;;;;;5034819;28;45384;-76
2021/11/21 13:49:59;;;;;;;;;18.25;17.00;;;;;;;;5034247;28;45565;-75
2021/11/21 13:52:27;;;;;;;;;20.50;16.50;;;;;;;;5033907;28;46375;-76
2021/11/21 13:54:54;;;;;;;;;17.00;16.00;;;;;;;;5016098;28;45633;-75
2021/11/21 13:57:21;;;;;;;;;13.25;13.25;;;;;;;;5018280;28;45189;-74
2021/11/21 13:59:46;;;;;;;;;12.25;11.00;;;;;;;;5035232;28;45475;-74
2021/11/21 14:02:12;;;;;;;;;13.50;11.00;;;;;;;;5034292;28;46353;-74
2021/11/21 14:04:37;;;;;;;;;10.25;10.25;;;;;;;;5034420;28;45662;-73
2021/11/21 14:07:12;;;;;;;;;15.75;14.00;;;;;;;;5034424;28;45428;-77
2021/11/21 14:09:50;;;;;;;;;13.75;11.00;;;;;;;;5034593;28;45351;-77
2021/11/21 14:12:20;;;;;;;;;13.75;10.75;;;;;;;;5015381;28;48213;-75
2021/11/21 14:15:00;;;;;;;;;12.00;8.75;;;;;;;;5034778;28;45426;-75